Terminal Aerodrome Forecast
Issued by NWS Jacksonville, FL

Home | Current Version | Previous Version | Text Only | Print | Product List | Glossary On
Versions: 1 2 3 4 5 6 7 8 9 10 11 12 13 14 15 16 17 18 19 20 21 22 23
000
FTUS42 KJAX 271300 AAA
TAFGNV
TAF AMD
KGNV 271303Z 2713/2812 05003KT 1/4SM FG VV002
      TEMPO 2714/2715 2SM BR BKN004
     FM271500 06007KT P6SM BKN030 BKN060
     FM280100 07003KT 5SM BR OVC020=

USA.gov is the U.S. government's official web portal to all federal, state and local government web resources and services.